sensor_id;sensor_type;location;lat;lon;timestamp;pressure;altitude;pressure_sealevel;temperature;humidity
55914;BME280;58179;48.776;9.124;2023-04-06T00:00:08;97554.72;;;1.85;100.00
55914;BME280;58179;48.776;9.124;2023-04-06T00:02:35;97545.22;;;1.77;100.00
55914;BME280;58179;48.776;9.124;2023-04-06T00:05:01;97549.63;;;1.77;100.00
55914;BME280;58179;48.776;9.124;2023-04-06T00:07:27;97547.84;;;1.77;100.00
55914;BME280;58179;48.776;9.124;2023-04-06T00:09:55;97542.94;;;1.68;100.00
55914;BME280;58179;48.776;9.124;2023-04-06T00:12:23;97547.13;;;1.62;100.00
55914;BME280;58179;48.776;9.124;2023-04-06T00:14:49;97544.84;;;1.52;100.00
55914;BME280;58179;48.776;9.124;2023-04-06T00:17:15;97536.22;;;1.52;100.00
55914;BME280;58179;48.776;9.124;2023-04-06T00:19:42;97534.66;;;1.58;100.00
55914;BME280;58179;48.776;9.124;2023-04-06T00:22:08;97542.41;;;1.51;100.00
55914;BME280;58179;48.776;9.124;2023-04-06T00:24:34;97537.19;;;1.51;100.00
55914;BME280;58179;48.776;9.124;2023-04-06T00:27:01;97541.44;;;1.52;100.00
55914;BME280;58179;48.776;9.124;2023-04-06T00:29:29;97535.63;;;1.50;100.00
55914;BME280;58179;48.776;9.124;2023-04-06T00:31:55;97535.00;;;1.48;100.00
55914;BME280;58179;48.776;9.124;2023-04-06T00:34:21;97544.44;;;1.49;100.00
55914;BME280;58179;48.776;9.124;2023-04-06T00:36:47;97540.97;;;1.42;100.00
55914;BME280;58179;48.776;9.124;2023-04-06T00:39:13;97533.50;;;1.39;100.00
55914;BME280;58179;48.776;9.124;2023-04-06T00:41:42;97530.50;;;1.35;100.00
55914;BME280;58179;48.776;9.124;2023-04-06T00:44:11;97531.28;;;1.36;100.00
55914;BME280;58179;48.776;9.124;2023-04-06T00:46:40;97527.66;;;1.37;100.00
55914;BME280;58179;48.776;9.124;2023-04-06T00:49:06;97525.97;;;1.50;100.00
55914;BME280;58179;48.776;9.124;2023-04-06T00:51:32;97528.13;;;1.40;100.00
55914;BME280;58179;48.776;9.124;2023-04-06T00:53:58;97534.19;;;1.47;100.00
55914;BME280;58179;48.776;9.124;2023-04-06T00:56:24;97525.66;;;1.32;100.00
55914;BME280;58179;48.776;9.124;2023-04-06T00:58:53;97520.47;;;1.39;100.00
55914;BME280;58179;48.776;9.124;2023-04-06T01:01:19;97521.88;;;1.35;100.00
55914;BME280;58179;48.776;9.124;2023-04-06T01:03:48;97527.94;;;1.42;100.00
55914;BME280;58179;48.776;9.124;2023-04-06T01:06:15;97521.69;;;1.43;100.00
55914;BME280;58179;48.776;9.124;2023-04-06T01:08:42;97519.81;;;1.30;100.00
55914;BME280;58179;48.776;9.124;2023-04-06T01:11:08;97514.19;;;1.27;100.00
55914;BME280;58179;48.776;9.124;2023-04-06T01:13:36;97516.25;;;1.38;100.00
55914;BME280;58179;48.776;9.124;2023-04-06T01:16:03;97511.97;;;1.30;100.00
55914;BME280;58179;48.776;9.124;2023-04-06T01:18:30;97507.53;;;1.24;100.00
55914;BME280;58179;48.776;9.124;2023-04-06T01:20:57;97506.94;;;1.29;100.00
55914;BME280;58179;48.776;9.124;2023-04-06T01:23:26;97502.94;;;1.26;100.00
55914;BME280;58179;48.776;9.124;2023-04-06T01:25:52;97506.53;;;1.25;100.00
55914;BME280;58179;48.776;9.124;2023-04-06T01:28:18;97498.72;;;1.25;100.00
55914;BME280;58179;48.776;9.124;2023-04-06T01:30:44;97504.91;;;1.24;100.00
55914;BME280;58179;48.776;9.124;2023-04-06T01:33:12;97502.69;;;1.21;100.00
55914;BME280;58179;48.776;9.124;2023-04-06T01:35:40;97497.84;;;1.18;100.00
55914;BME280;58179;48.776;9.124;2023-04-06T01:38:06;97498.84;;;1.17;100.00
55914;BME280;58179;48.776;9.124;2023-04-06T01:40:35;97498.66;;;1.19;100.00
55914;BME280;58179;48.776;9.124;2023-04-06T01:43:01;97504.13;;;1.24;100.00
55914;BME280;58179;48.776;9.124;2023-04-06T01:45:27;97498.63;;;1.12;100.00
55914;BME280;58179;48.776;9.124;2023-04-06T01:47:53;97499.28;;;0.99;100.00
55914;BME280;58179;48.776;9.124;2023-04-06T01:50:20;97498.81;;;0.89;100.00
55914;BME280;58179;48.776;9.124;2023-04-06T01:52:46;97500.63;;;0.89;100.00
55914;BME280;58179;48.776;9.124;2023-04-06T01:55:12;97499.41;;;0.91;100.00
55914;BME280;58179;48.776;9.124;2023-04-06T01:57:43;97482.31;;;0.82;100.00
55914;BME280;58179;48.776;9.124;2023-04-06T02:00:10;97493.91;;;0.80;100.00
55914;BME280;58179;48.776;9.124;2023-04-06T02:02:37;97492.94;;;0.81;100.00
55914;BME280;58179;48.776;9.124;2023-04-06T02:05:04;97491.69;;;0.76;100.00
55914;BME280;58179;48.776;9.124;2023-04-06T02:07:30;97487.91;;;0.79;100.00
55914;BME280;58179;48.776;9.124;2023-04-06T02:09:58;97488.47;;;0.74;100.00
55914;BME280;58179;48.776;9.124;2023-04-06T02:12:24;97484.25;;;0.73;100.00
55914;BME280;58179;48.776;9.124;2023-04-06T02:14:51;97486.03;;;0.73;100.00
55914;BME280;58179;48.776;9.124;2023-04-06T02:17:17;97484.44;;;0.72;100.00
55914;BME280;58179;48.776;9.124;2023-04-06T02:19:43;97481.81;;;0.72;100.00
55914;BME280;58179;48.776;9.124;2023-04-06T02:22:09;97479.22;;;0.72;100.00
55914;BME280;58179;48.776;9.124;2023-04-06T02:24:36;97485.00;;;0.67;100.00
55914;BME280;58179;48.776;9.124;2023-04-06T02:27:02;97479.53;;;0.62;100.00
55914;BME280;58179;48.776;9.124;2023-04-06T02:29:28;97487.50;;;0.61;100.00
55914;BME280;58179;48.776;9.124;2023-04-06T02:31:55;97484.66;;;0.56;100.00
55914;BME280;58179;48.776;9.124;2023-04-06T02:34:21;97479.47;;;0.56;100.00
55914;BME280;58179;48.776;9.124;2023-04-06T02:36:47;97481.25;;;0.55;100.00
55914;BME280;58179;48.776;9.124;2023-04-06T02:39:14;97480.03;;;0.51;100.00
55914;BME280;58179;48.776;9.124;2023-04-06T02:41:40;97481.19;;;0.49;100.00
55914;BME280;58179;48.776;9.124;2023-04-06T02:44:07;97482.19;;;0.48;100.00
55914;BME280;58179;48.776;9.124;2023-04-06T02:46:34;97471.13;;;0.46;100.00
55914;BME280;58179;48.776;9.124;2023-04-06T02:49:02;97476.72;;;0.43;100.00
55914;BME280;58179;48.776;9.124;2023-04-06T02:51:28;97473.13;;;0.44;100.00
55914;BME280;58179;48.776;9.124;2023-04-06T02:53:55;97477.09;;;0.39;100.00
55914;BME280;58179;48.776;9.124;2023-04-06T02:56:21;97480.13;;;0.43;100.00
55914;BME280;58179;48.776;9.124;2023-04-06T02:58:47;97477.03;;;0.33;100.00
55914;BME280;58179;48.776;9.124;2023-04-06T03:01:14;97473.25;;;0.35;100.00
55914;BME280;58179;48.776;9.124;2023-04-06T03:03:41;97474.00;;;0.29;100.00
55914;BME280;58179;48.776;9.124;2023-04-06T03:06:09;97471.56;;;0.28;100.00
55914;BME280;58179;48.776;9.124;2023-04-06T03:08:35;97473.78;;;0.31;100.00
55914;BME280;58179;48.776;9.124;2023-04-06T03:11:01;97471.38;;;0.29;100.00
55914;BME280;58179;48.776;9.124;2023-04-06T03:13:27;97461.50;;;0.25;100.00
55914;BME280;58179;48.776;9.124;2023-04-06T03:15:53;97466.53;;;0.26;100.00
55914;BME280;58179;48.776;9.124;2023-04-06T03:18:22;97468.50;;;0.24;100.00
55914;BME280;58179;48.776;9.124;2023-04-06T03:20:49;97468.50;;;0.24;100.00
55914;BME280;58179;48.776;9.124;2023-04-06T03:23:17;97463.13;;;0.26;100.00
55914;BME280;58179;48.776;9.124;2023-04-06T03:25:46;97466.91;;;0.23;100.00
55914;BME280;58179;48.776;9.124;2023-04-06T03:28:12;97465.09;;;0.24;100.00
55914;BME280;58179;48.776;9.124;2023-04-06T03:30:39;97468.69;;;0.23;100.00
55914;BME280;58179;48.776;9.124;2023-04-06T03:33:06;97465.31;;;0.22;100.00
55914;BME280;58179;48.776;9.124;2023-04-06T03:35:32;97468.25;;;0.19;100.00
55914;BME280;58179;48.776;9.124;2023-04-06T03:37:58;97471.69;;;0.20;100.00
55914;BME280;58179;48.776;9.124;2023-04-06T03:40:25;97471.69;;;0.20;100.00
55914;BME280;58179;48.776;9.124;2023-04-06T03:42:51;97472.66;;;0.19;100.00
55914;BME280;58179;48.776;9.124;2023-04-06T03:45:17;97478.22;;;0.16;100.00
55914;BME280;58179;48.776;9.124;2023-04-06T03:47:43;97476.81;;;0.13;100.00
55914;BME280;58179;48.776;9.124;2023-04-06T03:50:10;97477.97;;;0.11;100.00
55914;BME280;58179;48.776;9.124;2023-04-06T03:52:36;97471.97;;;0.10;100.00
55914;BME280;58179;48.776;9.124;2023-04-06T03:55:02;97480.16;;;0.07;100.00
55914;BME280;58179;48.776;9.124;2023-04-06T03:57:31;97483.09;;;0.04;100.00
55914;BME280;58179;48.776;9.124;2023-04-06T03:59:57;97480.50;;;0.04;100.00
55914;BME280;58179;48.776;9.124;2023-04-06T04:02:23;97482.28;;;0.04;100.00
55914;BME280;58179;48.776;9.124;2023-04-06T04:04:49;97487.66;;;0.02;100.00
55914;BME280;58179;48.776;9.124;2023-04-06T04:07:15;97483.44;;;0.01;100.00
55914;BME280;58179;48.776;9.124;2023-04-06T04:09:41;97484.47;;;0.00;100.00
55914;BME280;58179;48.776;9.124;2023-04-06T04:12:07;97487.31;;;0.05;100.00
55914;BME280;58179;48.776;9.124;2023-04-06T04:14:34;97483.34;;;0.09;100.00
55914;BME280;58179;48.776;9.124;2023-04-06T04:17:00;97488.84;;;0.14;100.00
55914;BME280;58179;48.776;9.124;2023-04-06T04:19:28;97487.66;;;0.17;100.00
55914;BME280;58179;48.776;9.124;2023-04-06T04:21:54;97496.97;;;0.26;100.00
55914;BME280;58179;48.776;9.124;2023-04-06T04:24:20;97489.41;;;0.31;100.00
55914;BME280;58179;48.776;9.124;2023-04-06T04:26:46;97491.91;;;0.39;100.00
55914;BME280;58179;48.776;9.124;2023-04-06T04:29:12;97490.81;;;0.48;100.00
55914;BME280;58179;48.776;9.124;2023-04-06T04:31:40;97490.69;;;0.56;100.00
55914;BME280;58179;48.776;9.124;2023-04-06T04:34:06;97493.75;;;0.60;100.00
55914;BME280;58179;48.776;9.124;2023-04-06T04:36:32;97496.34;;;0.60;100.00
55914;BME280;58179;48.776;9.124;2023-04-06T04:38:58;97495.09;;;0.56;100.00
55914;BME280;58179;48.776;9.124;2023-04-06T04:41:26;97491.44;;;0.50;100.00
55914;BME280;58179;48.776;9.124;2023-04-06T04:43:53;97497.97;;;0.46;100.00
55914;BME280;58179;48.776;9.124;2023-04-06T04:46:18;97489.94;;;0.41;100.00
55914;BME280;58179;48.776;9.124;2023-04-06T04:48:47;97489.50;;;0.37;100.00
55914;BME280;58179;48.776;9.124;2023-04-06T04:51:13;97499.47;;;0.34;100.00
55914;BME280;58179;48.776;9.124;2023-04-06T04:53:39;97496.41;;;0.30;100.00
55914;BME280;58179;48.776;9.124;2023-04-06T04:56:05;97495.97;;;0.27;100.00
55914;BME280;58179;48.776;9.124;2023-04-06T04:58:31;97502.34;;;0.24;100.00
55914;BME280;58179;48.776;9.124;2023-04-06T05:00:57;97501.75;;;0.22;100.00
55914;BME280;58179;48.776;9.124;2023-04-06T05:03:25;97508.13;;;0.20;100.00
55914;BME280;58179;48.776;9.124;2023-04-06T05:05:53;97503.91;;;0.19;100.00
55914;BME280;58179;48.776;9.124;2023-04-06T05:08:19;97500.47;;;0.18;100.00
55914;BME280;58179;48.776;9.124;2023-04-06T05:10:45;97502.44;;;0.16;100.00
55914;BME280;58179;48.776;9.124;2023-04-06T05:13:12;97507.47;;;0.18;100.00
55914;BME280;58179;48.776;9.124;2023-04-06T05:15:38;97505.69;;;0.18;100.00
55914;BME280;58179;48.776;9.124;2023-04-06T05:18:06;97513.31;;;0.20;100.00
55914;BME280;58179;48.776;9.124;2023-04-06T05:20:32;97507.56;;;0.24;100.00
55914;BME280;58179;48.776;9.124;2023-04-06T05:23:01;97516.81;;;0.27;100.00
55914;BME280;58179;48.776;9.124;2023-04-06T05:25:28;97513.03;;;0.29;100.00
55914;BME280;58179;48.776;9.124;2023-04-06T05:27:54;97511.84;;;0.32;100.00
55914;BME280;58179;48.776;9.124;2023-04-06T05:30:20;97511.66;;;0.33;100.00
55914;BME280;58179;48.776;9.124;2023-04-06T05:32:48;97517.50;;;0.35;100.00
55914;BME280;58179;48.776;9.124;2023-04-06T05:35:14;97519.72;;;0.38;100.00
55914;BME280;58179;48.776;9.124;2023-04-06T05:37:40;97519.38;;;0.42;100.00
55914;BME280;58179;48.776;9.124;2023-04-06T05:40:08;97523.41;;;0.44;100.00
55914;BME280;58179;48.776;9.124;2023-04-06T05:42:38;97526.44;;;0.48;100.00
55914;BME280;58179;48.776;9.124;2023-04-06T05:45:05;97520.88;;;0.51;100.00
55914;BME280;58179;48.776;9.124;2023-04-06T05:47:31;97527.50;;;0.53;100.00
55914;BME280;58179;48.776;9.124;2023-04-06T05:49:58;97523.56;;;0.57;100.00
55914;BME280;58179;48.776;9.124;2023-04-06T05:52:24;97526.59;;;0.61;100.00
55914;BME280;58179;48.776;9.124;2023-04-06T05:54:50;97524.06;;;0.67;100.00
55914;BME280;58179;48.776;9.124;2023-04-06T05:57:19;97526.91;;;0.72;100.00
55914;BME280;58179;48.776;9.124;2023-04-06T05:59:45;97529.59;;;0.79;100.00
55914;BME280;58179;48.776;9.124;2023-04-06T06:02:11;97528.84;;;0.85;100.00
55914;BME280;58179;48.776;9.124;2023-04-06T06:04:37;97534.09;;;0.92;100.00
55914;BME280;58179;48.776;9.124;2023-04-06T06:07:04;97528.94;;;0.98;100.00
55914;BME280;58179;48.776;9.124;2023-04-06T06:09:31;97533.22;;;1.06;100.00
55914;BME280;58179;48.776;9.124;2023-04-06T06:11:57;97537.72;;;1.12;100.00
55914;BME280;58179;48.776;9.124;2023-04-06T06:14:24;97540.38;;;1.19;100.00
55914;BME280;58179;48.776;9.124;2023-04-06T06:16:51;97539.63;;;1.25;100.00
55914;BME280;58179;48.776;9.124;2023-04-06T06:19:17;97541.28;;;1.32;100.00
55914;BME280;58179;48.776;9.124;2023-04-06T06:21:43;97540.34;;;1.40;100.00
55914;BME280;58179;48.776;9.124;2023-04-06T06:24:10;97538.59;;;1.47;100.00
55914;BME280;58179;48.776;9.124;2023-04-06T06:26:36;97535.03;;;1.54;100.00
55914;BME280;58179;48.776;9.124;2023-04-06T06:29:03;97532.47;;;1.61;100.00
55914;BME280;58179;48.776;9.124;2023-04-06T06:31:32;97540.78;;;1.71;100.00
55914;BME280;58179;48.776;9.124;2023-04-06T06:33:58;97538.63;;;1.81;100.00
55914;BME280;58179;48.776;9.124;2023-04-06T06:36:26;97540.34;;;2.02;100.00
55914;BME280;58179;48.776;9.124;2023-04-06T06:38:52;97532.78;;;2.14;100.00
55914;BME280;58179;48.776;9.124;2023-04-06T06:41:18;97537.69;;;2.37;100.00
55914;BME280;58179;48.776;9.124;2023-04-06T06:43:44;97539.16;;;2.52;100.00
55914;BME280;58179;48.776;9.124;2023-04-06T06:46:10;97537.63;;;2.84;100.00
55914;BME280;58179;48.776;9.124;2023-04-06T06:48:37;97532.63;;;3.02;100.00
55914;BME280;58179;48.776;9.124;2023-04-06T06:51:04;97540.28;;;3.04;100.00
55914;BME280;58179;48.776;9.124;2023-04-06T06:53:30;97545.94;;;3.21;100.00
55914;BME280;58179;48.776;9.124;2023-04-06T06:55:56;97548.34;;;3.42;100.00
55914;BME280;58179;48.776;9.124;2023-04-06T06:58:22;97541.31;;;3.49;100.00
55914;BME280;58179;48.776;9.124;2023-04-06T07:00:49;97545.13;;;3.60;100.00
55914;BME280;58179;48.776;9.124;2023-04-06T07:03:15;97546.13;;;3.72;100.00
55914;BME280;58179;48.776;9.124;2023-04-06T07:05:47;97549.13;;;3.69;100.00
55914;BME280;58179;48.776;9.124;2023-04-06T07:08:18;97548.72;;;3.85;100.00
55914;BME280;58179;48.776;9.124;2023-04-06T07:10:47;97547.69;;;3.93;100.00
55914;BME280;58179;48.776;9.124;2023-04-06T07:13:14;97552.31;;;4.04;100.00
55914;BME280;58179;48.776;9.124;2023-04-06T07:15:46;97546.63;;;4.20;100.00
55914;BME280;58179;48.776;9.124;2023-04-06T07:18:13;97555.28;;;4.20;100.00
55914;BME280;58179;48.776;9.124;2023-04-06T07:20:39;97561.72;;;4.24;100.00
55914;BME280;58179;48.776;9.124;2023-04-06T07:23:08;97555.44;;;4.32;100.00
55914;BME280;58179;48.776;9.124;2023-04-06T07:25:34;97554.81;;;4.37;100.00
55914;BME280;58179;48.776;9.124;2023-04-06T07:28:01;97547.97;;;4.42;100.00
55914;BME280;58179;48.776;9.124;2023-04-06T07:30:28;97551.16;;;4.51;100.00
55914;BME280;58179;48.776;9.124;2023-04-06T07:32:55;97551.50;;;4.61;100.00
55914;BME280;58179;48.776;9.124;2023-04-06T07:35:22;97551.69;;;4.66;100.00
55914;BME280;58179;48.776;9.124;2023-04-06T07:37:48;97553.63;;;4.77;100.00
55914;BME280;58179;48.776;9.124;2023-04-06T07:40:16;97556.38;;;4.89;100.00
55914;BME280;58179;48.776;9.124;2023-04-06T07:42:42;97546.28;;;4.92;100.00
55914;BME280;58179;48.776;9.124;2023-04-06T07:45:09;97553.16;;;4.93;100.00
55914;BME280;58179;48.776;9.124;2023-04-06T07:47:35;97544.59;;;5.04;100.00
55914;BME280;58179;48.776;9.124;2023-04-06T07:50:02;97545.34;;;5.12;100.00
55914;BME280;58179;48.776;9.124;2023-04-06T07:52:28;97553.19;;;5.18;100.00
55914;BME280;58179;48.776;9.124;2023-04-06T07:54:55;97551.28;;;5.32;100.00
55914;BME280;58179;48.776;9.124;2023-04-06T07:57:23;97547.63;;;5.33;100.00
55914;BME280;58179;48.776;9.124;2023-04-06T07:59:49;97544.91;;;5.46;100.00
55914;BME280;58179;48.776;9.124;2023-04-06T08:02:16;97549.03;;;5.60;100.00
55914;BME280;58179;48.776;9.124;2023-04-06T08:04:42;97550.03;;;5.59;100.00
55914;BME280;58179;48.776;9.124;2023-04-06T08:07:08;97546.34;;;5.67;100.00
55914;BME280;58179;48.776;9.124;2023-04-06T08:09:34;97546.72;;;5.70;100.00
55914;BME280;58179;48.776;9.124;2023-04-06T08:12:02;97538.41;;;5.73;100.00
55914;BME280;58179;48.776;9.124;2023-04-06T08:14:29;97552.06;;;5.82;100.00
55914;BME280;58179;48.776;9.124;2023-04-06T08:16:55;97552.22;;;5.87;100.00
55914;BME280;58179;48.776;9.124;2023-04-06T08:19:21;97551.41;;;5.93;100.00
55914;BME280;58179;48.776;9.124;2023-04-06T08:21:47;97547.88;;;5.99;100.00
55914;BME280;58179;48.776;9.124;2023-04-06T08:24:14;97552.47;;;6.04;100.00
55914;BME280;58179;48.776;9.124;2023-04-06T08:26:40;97555.03;;;6.10;100.00
55914;BME280;58179;48.776;9.124;2023-04-06T08:29:06;97552.28;;;6.24;100.00
55914;BME280;58179;48.776;9.124;2023-04-06T08:31:36;97557.22;;;6.32;100.00
55914;BME280;58179;48.776;9.124;2023-04-06T08:34:04;97552.88;;;6.44;100.00
55914;BME280;58179;48.776;9.124;2023-04-06T08:36:31;97554.59;;;6.50;100.00
55914;BME280;58179;48.776;9.124;2023-04-06T08:38:59;97554.31;;;6.58;100.00
55914;BME280;58179;48.776;9.124;2023-04-06T08:41:27;97548.38;;;6.63;100.00
55914;BME280;58179;48.776;9.124;2023-04-06T08:43:57;97553.31;;;6.71;100.00
55914;BME280;58179;48.776;9.124;2023-04-06T08:46:25;97551.66;;;6.76;100.00
55914;BME280;58179;48.776;9.124;2023-04-06T08:49:00;97550.56;;;6.84;100.00
55914;BME280;58179;48.776;9.124;2023-04-06T08:51:27;97546.00;;;6.91;100.00
55914;BME280;58179;48.776;9.124;2023-04-06T08:53:54;97543.28;;;6.97;100.00
55914;BME280;58179;48.776;9.124;2023-04-06T08:56:21;97543.06;;;6.99;100.00
55914;BME280;58179;48.776;9.124;2023-04-06T08:58:48;97543.50;;;7.08;100.00
55914;BME280;58179;48.776;9.124;2023-04-06T09:01:14;97543.78;;;7.18;100.00
55914;BME280;58179;48.776;9.124;2023-04-06T09:03:45;97538.50;;;7.18;100.00
55914;BME280;58179;48.776;9.124;2023-04-06T09:06:13;97532.66;;;7.16;100.00
55914;BME280;58179;48.776;9.124;2023-04-06T09:08:41;97537.28;;;7.32;100.00
55914;BME280;58179;48.776;9.124;2023-04-06T09:11:08;97530.88;;;7.39;100.00
55914;BME280;58179;48.776;9.124;2023-04-06T09:13:46;97534.31;;;7.40;100.00
55914;BME280;58179;48.776;9.124;2023-04-06T09:16:14;97527.47;;;7.62;100.00
55914;BME280;58179;48.776;9.124;2023-04-06T09:18:41;97533.31;;;7.64;100.00
55914;BME280;58179;48.776;9.124;2023-04-06T09:21:08;97533.66;;;7.68;100.00
55914;BME280;58179;48.776;9.124;2023-04-06T09:23:36;97534.34;;;7.75;100.00
55914;BME280;58179;48.776;9.124;2023-04-06T09:26:07;97537.44;;;7.84;100.00
55914;BME280;58179;48.776;9.124;2023-04-06T09:28:47;97531.97;;;7.97;100.00
55914;BME280;58179;48.776;9.124;2023-04-06T09:31:14;97524.25;;;8.07;100.00
55914;BME280;58179;48.776;9.124;2023-04-06T09:33:43;97531.47;;;8.11;100.00
55914;BME280;58179;48.776;9.124;2023-04-06T09:36:11;97533.50;;;8.21;100.00
55914;BME280;58179;48.776;9.124;2023-04-06T09:38:54;97526.53;;;8.27;100.00
55914;BME280;58179;48.776;9.124;2023-04-06T09:41:25;97528.69;;;8.41;100.00
55914;BME280;58179;48.776;9.124;2023-04-06T09:44:01;97528.22;;;8.44;100.00
55914;BME280;58179;48.776;9.124;2023-04-06T09:46:28;97530.16;;;8.49;100.00
55914;BME280;58179;48.776;9.124;2023-04-06T09:48:57;97530.13;;;8.61;100.00
55914;BME280;58179;48.776;9.124;2023-04-06T09:51:24;97536.19;;;8.61;100.00
55914;BME280;58179;48.776;9.124;2023-04-06T09:53:54;97531.53;;;8.80;100.00
55914;BME280;58179;48.776;9.124;2023-04-06T09:56:25;97529.16;;;8.95;100.00
55914;BME280;58179;48.776;9.124;2023-04-06T09:58:57;97533.16;;;9.09;100.00
55914;BME280;58179;48.776;9.124;2023-04-06T10:01:32;97533.00;;;9.16;100.00
55914;BME280;58179;48.776;9.124;2023-04-06T10:04:10;97534.41;;;9.07;100.00
55914;BME280;58179;48.776;9.124;2023-04-06T10:06:39;97519.47;;;9.29;95.89
55914;BME280;58179;48.776;9.124;2023-04-06T10:09:07;97521.34;;;9.62;100.00
55914;BME280;58179;48.776;9.124;2023-04-06T10:11:34;97527.84;;;9.93;100.00
55914;BME280;58179;48.776;9.124;2023-04-06T10:14:01;97520.13;;;10.46;100.00
55914;BME280;58179;48.776;9.124;2023-04-06T10:16:28;97513.66;;;11.13;100.00
55914;BME280;58179;48.776;9.124;2023-04-06T10:19:01;97512.84;;;11.71;100.00
55914;BME280;58179;48.776;9.124;2023-04-06T10:21:29;97511.63;;;12.36;100.00
55914;BME280;58179;48.776;9.124;2023-04-06T10:24:00;97509.41;;;12.95;100.00
55914;BME280;58179;48.776;9.124;2023-04-06T10:26:28;97518.56;;;13.35;73.04
55914;BME280;58179;48.776;9.124;2023-04-06T10:28:55;97506.84;;;13.46;63.02
55914;BME280;58179;48.776;9.124;2023-04-06T10:31:25;97509.25;;;13.42;59.91
55914;BME280;58179;48.776;9.124;2023-04-06T10:33:57;97501.00;;;13.39;64.42
55914;BME280;58179;48.776;9.124;2023-04-06T10:36:26;97510.84;;;13.43;78.59
55914;BME280;58179;48.776;9.124;2023-04-06T10:38:59;97506.84;;;13.56;78.14
55914;BME280;58179;48.776;9.124;2023-04-06T10:41:34;97504.97;;;13.62;63.11
55914;BME280;58179;48.776;9.124;2023-04-06T10:44:00;97507.38;;;13.63;79.26
55914;BME280;58179;48.776;9.124;2023-04-06T10:46:30;97506.84;;;13.71;87.16
55914;BME280;58179;48.776;9.124;2023-04-06T10:48:58;97498.56;;;13.93;81.53
55914;BME280;58179;48.776;9.124;2023-04-06T10:51:38;97500.91;;;14.20;71.21
55914;BME280;58179;48.776;9.124;2023-04-06T10:54:06;97488.13;;;14.07;52.23
55914;BME280;58179;48.776;9.124;2023-04-06T10:56:37;97496.94;;;13.92;51.06
55914;BME280;58179;48.776;9.124;2023-04-06T10:59:06;97486.00;;;14.19;64.50
55914;BME280;58179;48.776;9.124;2023-04-06T11:01:33;97495.69;;;14.64;75.87
55914;BME280;58179;48.776;9.124;2023-04-06T11:03:59;97494.00;;;14.78;52.60
55914;BME280;58179;48.776;9.124;2023-04-06T11:06:27;97485.16;;;14.88;53.24
55914;BME280;58179;48.776;9.124;2023-04-06T11:08:56;97486.28;;;15.21;67.14
55914;BME280;58179;48.776;9.124;2023-04-06T11:11:24;97493.22;;;15.50;76.00
55914;BME280;58179;48.776;9.124;2023-04-06T11:13:56;97481.97;;;15.87;80.49
55914;BME280;58179;48.776;9.124;2023-04-06T11:16:25;97482.06;;;16.06;78.66
55914;BME280;58179;48.776;9.124;2023-04-06T11:18:54;97472.22;;;16.25;72.86
55914;BME280;58179;48.776;9.124;2023-04-06T11:21:33;97468.56;;;16.40;72.96
55914;BME280;58179;48.776;9.124;2023-04-06T11:24:10;97465.63;;;16.66;71.33
55914;BME280;58179;48.776;9.124;2023-04-06T11:26:41;97460.38;;;16.98;79.17
55914;BME280;58179;48.776;9.124;2023-04-06T11:29:09;97465.91;;;17.01;80.91
55914;BME280;58179;48.776;9.124;2023-04-06T11:31:42;97464.03;;;17.02;63.33
55914;BME280;58179;48.776;9.124;2023-04-06T11:34:12;97461.16;;;17.31;72.28
55914;BME280;58179;48.776;9.124;2023-04-06T11:36:43;97455.91;;;17.58;76.75
55914;BME280;58179;48.776;9.124;2023-04-06T11:39:11;97461.91;;;17.83;70.44
55914;BME280;58179;48.776;9.124;2023-04-06T11:41:37;97449.50;;;17.08;43.75
55914;BME280;58179;48.776;9.124;2023-04-06T11:44:04;97448.00;;;17.34;65.16
55914;BME280;58179;48.776;9.124;2023-04-06T11:46:32;97443.97;;;17.69;70.20
55914;BME280;58179;48.776;9.124;2023-04-06T11:48:59;97436.06;;;18.05;74.81
55914;BME280;58179;48.776;9.124;2023-04-06T11:51:27;97436.41;;;18.67;73.78
55914;BME280;58179;48.776;9.124;2023-04-06T11:53:54;97435.66;;;18.89;53.59
55914;BME280;58179;48.776;9.124;2023-04-06T11:56:25;97433.59;;;18.86;42.33
55914;BME280;58179;48.776;9.124;2023-04-06T11:58:55;97447.16;;;18.40;38.49
55914;BME280;58179;48.776;9.124;2023-04-06T12:01:21;97438.03;;;18.41;54.60
55914;BME280;58179;48.776;9.124;2023-04-06T12:03:49;97428.81;;;18.33;57.67
55914;BME280;58179;48.776;9.124;2023-04-06T12:06:15;97432.69;;;18.41;67.47
55914;BME280;58179;48.776;9.124;2023-04-06T12:08:41;97425.41;;;18.69;77.96
55914;BME280;58179;48.776;9.124;2023-04-06T12:11:10;97427.56;;;19.03;81.73
55914;BME280;58179;48.776;9.124;2023-04-06T12:13:36;97420.84;;;19.36;75.69
55914;BME280;58179;48.776;9.124;2023-04-06T12:16:02;97423.91;;;19.43;75.38
55914;BME280;58179;48.776;9.124;2023-04-06T12:18:29;97422.09;;;19.52;83.69
55914;BME280;58179;48.776;9.124;2023-04-06T12:20:57;97421.78;;;19.54;89.33
55914;BME280;58179;48.776;9.124;2023-04-06T12:23:23;97417.22;;;19.54;85.53
55914;BME280;58179;48.776;9.124;2023-04-06T12:25:49;97403.41;;;19.25;62.41
55914;BME280;58179;48.776;9.124;2023-04-06T12:28:16;97409.47;;;19.08;76.31
55914;BME280;58179;48.776;9.124;2023-04-06T12:30:43;97407.31;;;19.19;81.89
55914;BME280;58179;48.776;9.124;2023-04-06T12:33:10;97402.38;;;19.34;85.76
55914;BME280;58179;48.776;9.124;2023-04-06T12:35:36;97417.13;;;19.68;89.90
55914;BME280;58179;48.776;9.124;2023-04-06T12:38:04;97405.59;;;20.16;88.63
55914;BME280;58179;48.776;9.124;2023-04-06T12:40:30;97397.19;;;20.74;87.08
55914;BME280;58179;48.776;9.124;2023-04-06T12:42:58;97397.34;;;21.12;80.36
55914;BME280;58179;48.776;9.124;2023-04-06T12:45:24;97396.38;;;21.42;83.49
55914;BME280;58179;48.776;9.124;2023-04-06T12:47:51;97390.47;;;21.49;83.58
55914;BME280;58179;48.776;9.124;2023-04-06T12:50:17;97400.22;;;21.79;80.57
55914;BME280;58179;48.776;9.124;2023-04-06T12:52:43;97384.09;;;22.09;73.86
55914;BME280;58179;48.776;9.124;2023-04-06T12:55:11;97389.84;;;22.28;57.87
55914;BME280;58179;48.776;9.124;2023-04-06T12:57:37;97391.41;;;22.79;65.60
55914;BME280;58179;48.776;9.124;2023-04-06T13:00:04;97397.69;;;23.25;63.59